Absarokee, Montana
Current Conditions -  °F | °C
As of 12:53 AM on Monday 22 Dec 2014 (Local Time) from KBIL Reporting Station
Clear Clear  
Wind Chill: 26°   Ceiling: Unl
Heat Index: 38°   Visibility: 10mi
Dew Point: 20°   Wind: 26mph
Humidity: 48%   Direction: 280°W
Pressure: 29.69"   Gusts: NA
Location:  45.53°N, 109.43°W
Report Text: KBIL 220753Z 28023KT 10SM CLR 03/M07 A2969 RMK AO2 PK WND 28032/0737 SLP058 T00331067
Loading
Personal Weather Stations






























Interactive Weather Map New forecast layout! Learn more

10-Day Weather Forecast

Advertisements
Track Severe Weather on mobile